sensor_id;sensor_type;location;lat;lon;timestamp;P1;durP1;ratioP1;P2;durP2;ratioP2
54125;SDS011;40360;52.992;6.796;2023-05-02T00:00:24;23.17;;;13.25;;
54125;SDS011;40360;52.992;6.796;2023-05-02T00:02:50;21.90;;;13.25;;
54125;SDS011;40360;52.992;6.796;2023-05-02T00:05:15;19.92;;;12.48;;
54125;SDS011;40360;52.992;6.796;2023-05-02T00:07:41;17.10;;;10.90;;
54125;SDS011;40360;52.992;6.796;2023-05-02T00:10:07;20.48;;;11.35;;
54125;SDS011;40360;52.992;6.796;2023-05-02T00:12:33;21.38;;;10.02;;
54125;SDS011;40360;52.992;6.796;2023-05-02T00:14:59;18.98;;;10.30;;
54125;SDS011;40360;52.992;6.796;2023-05-02T00:17:25;20.55;;;11.27;;
54125;SDS011;40360;52.992;6.796;2023-05-02T00:19:51;15.30;;;10.00;;
54125;SDS011;40360;52.992;6.796;2023-05-02T00:22:16;19.60;;;10.20;;
54125;SDS011;40360;52.992;6.796;2023-05-02T00:24:42;19.98;;;10.38;;
54125;SDS011;40360;52.992;6.796;2023-05-02T00:27:07;17.75;;;10.27;;
54125;SDS011;40360;52.992;6.796;2023-05-02T00:29:33;15.68;;;8.77;;
54125;SDS011;40360;52.992;6.796;2023-05-02T00:31:59;14.35;;;7.72;;
54125;SDS011;40360;52.992;6.796;2023-05-02T00:34:30;12.82;;;5.95;;
54125;SDS011;40360;52.992;6.796;2023-05-02T00:36:56;12.38;;;6.22;;
54125;SDS011;40360;52.992;6.796;2023-05-02T00:39:21;9.48;;;5.18;;
54125;SDS011;40360;52.992;6.796;2023-05-02T00:41:47;6.25;;;4.97;;
54125;SDS011;40360;52.992;6.796;2023-05-02T00:44:13;8.88;;;5.50;;
54125;SDS011;40360;52.992;6.796;2023-05-02T00:46:38;8.30;;;4.70;;
54125;SDS011;40360;52.992;6.796;2023-05-02T00:49:04;8.00;;;4.32;;
54125;SDS011;40360;52.992;6.796;2023-05-02T00:51:32;8.07;;;4.38;;
54125;SDS011;40360;52.992;6.796;2023-05-02T00:53:57;8.10;;;4.65;;
54125;SDS011;40360;52.992;6.796;2023-05-02T00:56:24;6.80;;;5.03;;
54125;SDS011;40360;52.992;6.796;2023-05-02T00:58:50;9.48;;;5.30;;
54125;SDS011;40360;52.992;6.796;2023-05-02T01:01:35;11.88;;;5.50;;
54125;SDS011;40360;52.992;6.796;2023-05-02T01:04:29;9.68;;;4.93;;
54125;SDS011;40360;52.992;6.796;2023-05-02T01:12:46;9.07;;;5.53;;
54125;SDS011;40360;52.992;6.796;2023-05-02T01:15:47;12.07;;;5.07;;
54125;SDS011;40360;52.992;6.796;2023-05-02T01:18:15;7.28;;;4.78;;
54125;SDS011;40360;52.992;6.796;2023-05-02T01:20:47;8.60;;;4.78;;
54125;SDS011;40360;52.992;6.796;2023-05-02T01:23:24;11.80;;;5.45;;
54125;SDS011;40360;52.992;6.796;2023-05-02T01:29:16;10.52;;;5.45;;
54125;SDS011;40360;52.992;6.796;2023-05-02T01:31:47;9.10;;;4.85;;
54125;SDS011;40360;52.992;6.796;2023-05-02T01:34:14;9.80;;;4.90;;
54125;SDS011;40360;52.992;6.796;2023-05-02T01:36:42;10.13;;;5.30;;
54125;SDS011;40360;52.992;6.796;2023-05-02T01:39:12;7.57;;;4.90;;
54125;SDS011;40360;52.992;6.796;2023-05-02T01:41:42;10.63;;;5.13;;
54125;SDS011;40360;52.992;6.796;2023-05-02T01:44:10;12.13;;;5.40;;
54125;SDS011;40360;52.992;6.796;2023-05-02T01:46:40;9.75;;;4.20;;
54125;SDS011;40360;52.992;6.796;2023-05-02T01:49:08;9.25;;;4.72;;
54125;SDS011;40360;52.992;6.796;2023-05-02T01:51:36;13.45;;;5.43;;
54125;SDS011;40360;52.992;6.796;2023-05-02T01:54:08;9.88;;;4.75;;
54125;SDS011;40360;52.992;6.796;2023-05-02T01:56:37;10.95;;;5.00;;
54125;SDS011;40360;52.992;6.796;2023-05-02T01:59:10;10.50;;;5.13;;
54125;SDS011;40360;52.992;6.796;2023-05-02T02:01:42;7.95;;;4.85;;
54125;SDS011;40360;52.992;6.796;2023-05-02T02:04:08;9.07;;;4.72;;
54125;SDS011;40360;52.992;6.796;2023-05-02T02:06:36;6.88;;;4.10;;
54125;SDS011;40360;52.992;6.796;2023-05-02T02:09:03;10.93;;;4.90;;
54125;SDS011;40360;52.992;6.796;2023-05-02T02:14:19;10.57;;;4.65;;
54125;SDS011;40360;52.992;6.796;2023-05-02T02:16:46;9.50;;;3.47;;
54125;SDS011;40360;52.992;6.796;2023-05-02T02:19:14;17.27;;;5.00;;
54125;SDS011;40360;52.992;6.796;2023-05-02T02:21:41;12.38;;;4.78;;
54125;SDS011;40360;52.992;6.796;2023-05-02T02:24:07;17.88;;;5.97;;
54125;SDS011;40360;52.992;6.796;2023-05-02T02:26:34;19.98;;;6.22;;
54125;SDS011;40360;52.992;6.796;2023-05-02T02:29:01;17.70;;;5.15;;
54125;SDS011;40360;52.992;6.796;2023-05-02T02:31:31;19.52;;;6.30;;
54125;SDS011;40360;52.992;6.796;2023-05-02T02:33:58;16.85;;;5.55;;
54125;SDS011;40360;52.992;6.796;2023-05-02T02:36:27;18.50;;;5.45;;
54125;SDS011;40360;52.992;6.796;2023-05-02T02:39:01;23.45;;;5.40;;
54125;SDS011;40360;52.992;6.796;2023-05-02T02:41:48;18.10;;;4.53;;
54125;SDS011;40360;52.992;6.796;2023-05-02T02:47:10;14.13;;;5.28;;
54125;SDS011;40360;52.992;6.796;2023-05-02T02:49:47;22.73;;;5.63;;
54125;SDS011;40360;52.992;6.796;2023-05-02T02:54:58;14.00;;;5.57;;
54125;SDS011;40360;52.992;6.796;2023-05-02T03:00:01;24.35;;;5.57;;
54125;SDS011;40360;52.992;6.796;2023-05-02T03:02:35;17.33;;;5.50;;
54125;SDS011;40360;52.992;6.796;2023-05-02T03:05:03;24.15;;;6.15;;
54125;SDS011;40360;52.992;6.796;2023-05-02T03:07:31;22.48;;;6.75;;
54125;SDS011;40360;52.992;6.796;2023-05-02T03:09:56;21.38;;;5.35;;
54125;SDS011;40360;52.992;6.796;2023-05-02T03:12:22;19.90;;;5.80;;
54125;SDS011;40360;52.992;6.796;2023-05-02T03:14:48;23.77;;;6.50;;
54125;SDS011;40360;52.992;6.796;2023-05-02T03:17:14;22.83;;;5.72;;
54125;SDS011;40360;52.992;6.796;2023-05-02T03:19:40;20.23;;;4.93;;
54125;SDS011;40360;52.992;6.796;2023-05-02T03:22:05;27.85;;;6.20;;
54125;SDS011;40360;52.992;6.796;2023-05-02T03:24:31;19.52;;;6.28;;
54125;SDS011;40360;52.992;6.796;2023-05-02T03:26:57;18.02;;;5.60;;
54125;SDS011;40360;52.992;6.796;2023-05-02T03:29:23;27.15;;;6.50;;
54125;SDS011;40360;52.992;6.796;2023-05-02T03:31:50;19.88;;;5.30;;
54125;SDS011;40360;52.992;6.796;2023-05-02T03:34:16;21.55;;;5.50;;
54125;SDS011;40360;52.992;6.796;2023-05-02T03:36:43;21.95;;;4.95;;
54125;SDS011;40360;52.992;6.796;2023-05-02T03:39:09;21.73;;;5.70;;
54125;SDS011;40360;52.992;6.796;2023-05-02T03:41:35;24.38;;;6.15;;
54125;SDS011;40360;52.992;6.796;2023-05-02T03:44:00;16.02;;;4.88;;
54125;SDS011;40360;52.992;6.796;2023-05-02T03:46:26;24.33;;;6.03;;
54125;SDS011;40360;52.992;6.796;2023-05-02T03:48:51;18.50;;;6.28;;
54125;SDS011;40360;52.992;6.796;2023-05-02T03:51:17;21.05;;;5.57;;
54125;SDS011;40360;52.992;6.796;2023-05-02T03:53:43;23.33;;;5.93;;
54125;SDS011;40360;52.992;6.796;2023-05-02T03:56:08;18.88;;;5.07;;
54125;SDS011;40360;52.992;6.796;2023-05-02T03:58:34;15.73;;;4.57;;
54125;SDS011;40360;52.992;6.796;2023-05-02T04:01:00;13.15;;;4.22;;
54125;SDS011;40360;52.992;6.796;2023-05-02T04:03:26;16.10;;;4.55;;
54125;SDS011;40360;52.992;6.796;2023-05-02T04:05:52;24.60;;;5.88;;
54125;SDS011;40360;52.992;6.796;2023-05-02T04:08:18;20.38;;;5.15;;
54125;SDS011;40360;52.992;6.796;2023-05-02T04:10:44;18.50;;;5.47;;
54125;SDS011;40360;52.992;6.796;2023-05-02T04:13:10;16.13;;;4.53;;
54125;SDS011;40360;52.992;6.796;2023-05-02T04:15:36;16.13;;;4.75;;
54125;SDS011;40360;52.992;6.796;2023-05-02T04:18:01;24.08;;;4.45;;
54125;SDS011;40360;52.992;6.796;2023-05-02T04:20:27;16.27;;;3.90;;
54125;SDS011;40360;52.992;6.796;2023-05-02T04:22:53;15.88;;;4.10;;
54125;SDS011;40360;52.992;6.796;2023-05-02T04:25:19;13.40;;;4.15;;
54125;SDS011;40360;52.992;6.796;2023-05-02T04:27:44;15.75;;;3.92;;
54125;SDS011;40360;52.992;6.796;2023-05-02T04:30:10;14.77;;;3.88;;
54125;SDS011;40360;52.992;6.796;2023-05-02T04:32:36;10.52;;;2.83;;
54125;SDS011;40360;52.992;6.796;2023-05-02T04:35:02;14.88;;;2.95;;
54125;SDS011;40360;52.992;6.796;2023-05-02T04:37:28;8.00;;;3.10;;
54125;SDS011;40360;52.992;6.796;2023-05-02T04:39:54;9.63;;;2.80;;
54125;SDS011;40360;52.992;6.796;2023-05-02T04:42:19;10.93;;;3.42;;
54125;SDS011;40360;52.992;6.796;2023-05-02T04:44:45;10.88;;;3.08;;
54125;SDS011;40360;52.992;6.796;2023-05-02T04:47:12;16.35;;;3.35;;
54125;SDS011;40360;52.992;6.796;2023-05-02T04:49:38;14.07;;;3.33;;
54125;SDS011;40360;52.992;6.796;2023-05-02T04:52:04;5.90;;;2.28;;
54125;SDS011;40360;52.992;6.796;2023-05-02T04:54:31;9.68;;;2.85;;
54125;SDS011;40360;52.992;6.796;2023-05-02T04:56:57;16.88;;;3.00;;
54125;SDS011;40360;52.992;6.796;2023-05-02T04:59:23;11.40;;;3.80;;
54125;SDS011;40360;52.992;6.796;2023-05-02T05:01:49;7.88;;;3.08;;
54125;SDS011;40360;52.992;6.796;2023-05-02T05:04:14;11.82;;;2.92;;
54125;SDS011;40360;52.992;6.796;2023-05-02T05:06:40;9.50;;;2.40;;
54125;SDS011;40360;52.992;6.796;2023-05-02T05:09:06;11.90;;;3.05;;
54125;SDS011;40360;52.992;6.796;2023-05-02T05:11:31;4.18;;;1.98;;
54125;SDS011;40360;52.992;6.796;2023-05-02T05:13:57;7.95;;;2.60;;
54125;SDS011;40360;52.992;6.796;2023-05-02T05:16:22;9.57;;;3.00;;
54125;SDS011;40360;52.992;6.796;2023-05-02T05:18:48;6.38;;;2.33;;
54125;SDS011;40360;52.992;6.796;2023-05-02T05:21:14;10.80;;;3.20;;
54125;SDS011;40360;52.992;6.796;2023-05-02T05:23:39;4.88;;;2.22;;
54125;SDS011;40360;52.992;6.796;2023-05-02T05:26:10;11.40;;;3.00;;
54125;SDS011;40360;52.992;6.796;2023-05-02T05:28:37;6.75;;;2.28;;
54125;SDS011;40360;52.992;6.796;2023-05-02T05:31:09;16.55;;;2.50;;
54125;SDS011;40360;52.992;6.796;2023-05-02T05:33:37;6.82;;;2.10;;
54125;SDS011;40360;52.992;6.796;2023-05-02T05:36:10;12.23;;;2.78;;
54125;SDS011;40360;52.992;6.796;2023-05-02T05:38:39;7.07;;;2.38;;
54125;SDS011;40360;52.992;6.796;2023-05-02T05:41:04;11.40;;;3.33;;
54125;SDS011;40360;52.992;6.796;2023-05-02T06:01:24;28.77;;;5.60;;
54125;SDS011;40360;52.992;6.796;2023-05-02T06:03:50;13.05;;;3.78;;
54125;SDS011;40360;52.992;6.796;2023-05-02T06:06:16;14.00;;;3.92;;
54125;SDS011;40360;52.992;6.796;2023-05-02T06:08:41;13.45;;;3.33;;
54125;SDS011;40360;52.992;6.796;2023-05-02T06:11:07;16.85;;;3.67;;
54125;SDS011;40360;52.992;6.796;2023-05-02T06:13:34;13.68;;;3.70;;
54125;SDS011;40360;52.992;6.796;2023-05-02T06:16:00;10.82;;;3.70;;
54125;SDS011;40360;52.992;6.796;2023-05-02T06:18:26;11.05;;;4.07;;
54125;SDS011;40360;52.992;6.796;2023-05-02T06:20:53;13.07;;;4.32;;
54125;SDS011;40360;52.992;6.796;2023-05-02T06:23:18;11.05;;;3.75;;
54125;SDS011;40360;52.992;6.796;2023-05-02T06:25:44;14.68;;;3.35;;
54125;SDS011;40360;52.992;6.796;2023-05-02T06:28:09;11.00;;;3.63;;
54125;SDS011;40360;52.992;6.796;2023-05-02T06:30:35;10.13;;;3.33;;
54125;SDS011;40360;52.992;6.796;2023-05-02T06:33:02;16.98;;;4.18;;
54125;SDS011;40360;52.992;6.796;2023-05-02T06:35:29;14.43;;;3.90;;
54125;SDS011;40360;52.992;6.796;2023-05-02T06:37:54;10.32;;;3.42;;
54125;SDS011;40360;52.992;6.796;2023-05-02T06:40:20;11.38;;;4.22;;
54125;SDS011;40360;52.992;6.796;2023-05-02T06:42:45;12.85;;;4.07;;
54125;SDS011;40360;52.992;6.796;2023-05-02T06:45:11;14.60;;;4.93;;
54125;SDS011;40360;52.992;6.796;2023-05-02T06:47:37;9.35;;;4.20;;
54125;SDS011;40360;52.992;6.796;2023-05-02T06:50:02;19.05;;;3.70;;
54125;SDS011;40360;52.992;6.796;2023-05-02T06:52:28;7.97;;;3.63;;
54125;SDS011;40360;52.992;6.796;2023-05-02T06:54:53;8.52;;;2.58;;
54125;SDS011;40360;52.992;6.796;2023-05-02T06:57:19;11.65;;;3.72;;
54125;SDS011;40360;52.992;6.796;2023-05-02T06:59:45;11.05;;;3.70;;
54125;SDS011;40360;52.992;6.796;2023-05-02T07:02:10;9.80;;;3.40;;
54125;SDS011;40360;52.992;6.796;2023-05-02T07:04:36;12.15;;;3.13;;
54125;SDS011;40360;52.992;6.796;2023-05-02T07:07:01;12.88;;;3.92;;
54125;SDS011;40360;52.992;6.796;2023-05-02T07:09:28;8.98;;;3.72;;
54125;SDS011;40360;52.992;6.796;2023-05-02T07:11:53;11.95;;;3.42;;
54125;SDS011;40360;52.992;6.796;2023-05-02T07:14:19;13.27;;;3.38;;
54125;SDS011;40360;52.992;6.796;2023-05-02T07:16:45;10.43;;;3.00;;
54125;SDS011;40360;52.992;6.796;2023-05-02T07:19:11;14.65;;;3.33;;
54125;SDS011;40360;52.992;6.796;2023-05-02T07:21:36;12.88;;;3.08;;
54125;SDS011;40360;52.992;6.796;2023-05-02T07:24:02;12.18;;;4.20;;
54125;SDS011;40360;52.992;6.796;2023-05-02T07:26:28;9.80;;;2.80;;
54125;SDS011;40360;52.992;6.796;2023-05-02T07:28:53;11.90;;;3.20;;
54125;SDS011;40360;52.992;6.796;2023-05-02T07:31:19;11.45;;;3.22;;
54125;SDS011;40360;52.992;6.796;2023-05-02T07:33:44;7.80;;;2.83;;
54125;SDS011;40360;52.992;6.796;2023-05-02T07:36:10;7.70;;;3.10;;
54125;SDS011;40360;52.992;6.796;2023-05-02T07:38:36;9.20;;;3.60;;
54125;SDS011;40360;52.992;6.796;2023-05-02T07:41:01;13.55;;;2.92;;
54125;SDS011;40360;52.992;6.796;2023-05-02T07:43:27;12.82;;;2.80;;
54125;SDS011;40360;52.992;6.796;2023-05-02T07:45:54;9.15;;;3.38;;
54125;SDS011;40360;52.992;6.796;2023-05-02T07:48:20;10.05;;;3.42;;
54125;SDS011;40360;52.992;6.796;2023-05-02T07:50:45;9.60;;;3.13;;
54125;SDS011;40360;52.992;6.796;2023-05-02T07:53:11;9.60;;;3.33;;
54125;SDS011;40360;52.992;6.796;2023-05-02T07:55:37;10.90;;;3.88;;
54125;SDS011;40360;52.992;6.796;2023-05-02T07:58:02;10.52;;;3.13;;
54125;SDS011;40360;52.992;6.796;2023-05-02T08:00:28;15.02;;;3.35;;
54125;SDS011;40360;52.992;6.796;2023-05-02T08:02:54;12.57;;;4.03;;
54125;SDS011;40360;52.992;6.796;2023-05-02T08:05:20;6.93;;;3.42;;
54125;SDS011;40360;52.992;6.796;2023-05-02T08:07:45;13.50;;;3.15;;
54125;SDS011;40360;52.992;6.796;2023-05-02T08:10:11;13.27;;;4.63;;
54125;SDS011;40360;52.992;6.796;2023-05-02T08:12:37;14.40;;;3.70;;
54125;SDS011;40360;52.992;6.796;2023-05-02T08:15:05;14.25;;;3.42;;
54125;SDS011;40360;52.992;6.796;2023-05-02T08:17:35;8.18;;;2.63;;
54125;SDS011;40360;52.992;6.796;2023-05-02T08:20:01;11.93;;;3.33;;
54125;SDS011;40360;52.992;6.796;2023-05-02T08:22:27;11.80;;;3.20;;
54125;SDS011;40360;52.992;6.796;2023-05-02T08:24:52;9.57;;;2.45;;
54125;SDS011;40360;52.992;6.796;2023-05-02T08:27:18;14.38;;;3.40;;
54125;SDS011;40360;52.992;6.796;2023-05-02T08:29:43;8.07;;;3.20;;
54125;SDS011;40360;52.992;6.796;2023-05-02T08:32:09;12.20;;;4.10;;
54125;SDS011;40360;52.992;6.796;2023-05-02T08:34:35;9.27;;;2.58;;
54125;SDS011;40360;52.992;6.796;2023-05-02T08:37:01;10.00;;;3.42;;
54125;SDS011;40360;52.992;6.796;2023-05-02T08:39:31;11.75;;;3.03;;
54125;SDS011;40360;52.992;6.796;2023-05-02T08:41:57;11.88;;;3.60;;
54125;SDS011;40360;52.992;6.796;2023-05-02T08:44:23;11.30;;;3.25;;
54125;SDS011;40360;52.992;6.796;2023-05-02T08:46:48;5.93;;;2.95;;
54125;SDS011;40360;52.992;6.796;2023-05-02T08:49:16;14.75;;;3.20;;
54125;SDS011;40360;52.992;6.796;2023-05-02T08:51:43;11.02;;;3.75;;
54125;SDS011;40360;52.992;6.796;2023-05-02T08:54:16;11.85;;;3.30;;
54125;SDS011;40360;52.992;6.796;2023-05-02T08:56:43;10.25;;;3.58;;
54125;SDS011;40360;52.992;6.796;2023-05-02T08:59:10;7.93;;;2.85;;
54125;SDS011;40360;52.992;6.796;2023-05-02T09:01:35;10.07;;;3.53;;
54125;SDS011;40360;52.992;6.796;2023-05-02T09:04:05;9.38;;;2.30;;
54125;SDS011;40360;52.992;6.796;2023-05-02T09:06:31;11.88;;;2.60;;
54125;SDS011;40360;52.992;6.796;2023-05-02T09:08:58;8.60;;;2.53;;
54125;SDS011;40360;52.992;6.796;2023-05-02T09:11:24;4.57;;;1.88;;
54125;SDS011;40360;52.992;6.796;2023-05-02T09:13:50;2.13;;;1.35;;
54125;SDS011;40360;52.992;6.796;2023-05-02T09:18:50;5.45;;;1.80;;
54125;SDS011;40360;52.992;6.796;2023-05-02T09:21:19;7.28;;;2.20;;
54125;SDS011;40360;52.992;6.796;2023-05-02T09:28:44;4.63;;;1.85;;
54125;SDS011;40360;52.992;6.796;2023-05-02T09:31:11;3.03;;;1.10;;
54125;SDS011;40360;52.992;6.796;2023-05-02T09:33:39;2.53;;;1.17;;
54125;SDS011;40360;52.992;6.796;2023-05-02T09:36:05;4.75;;;1.35;;
54125;SDS011;40360;52.992;6.796;2023-05-02T09:38:35;3.55;;;1.60;;
54125;SDS011;40360;52.992;6.796;2023-05-02T09:41:02;5.95;;;1.40;;
54125;SDS011;40360;52.992;6.796;2023-05-02T09:43:28;3.30;;;1.42;;
54125;SDS011;40360;52.992;6.796;2023-05-02T09:45:55;3.90;;;1.40;;
54125;SDS011;40360;52.992;6.796;2023-05-02T09:48:31;4.35;;;1.77;;
54125;SDS011;40360;52.992;6.796;2023-05-02T09:51:18;4.22;;;1.77;;
54125;SDS011;40360;52.992;6.796;2023-05-02T09:53:44;10.30;;;2.67;;
54125;SDS011;40360;52.992;6.796;2023-05-02T09:56:11;4.30;;;1.98;;
54125;SDS011;40360;52.992;6.796;2023-05-02T09:58:37;6.88;;;2.78;;
54125;SDS011;40360;52.992;6.796;2023-05-02T10:01:02;6.72;;;1.70;;
54125;SDS011;40360;52.992;6.796;2023-05-02T10:03:28;4.65;;;1.52;;
54125;SDS011;40360;52.992;6.796;2023-05-02T10:05:56;6.47;;;1.70;;
54125;SDS011;40360;52.992;6.796;2023-05-02T10:08:25;5.32;;;1.45;;
54125;SDS011;40360;52.992;6.796;2023-05-02T10:10:56;7.47;;;1.63;;
54125;SDS011;40360;52.992;6.796;2023-05-02T10:13:23;3.47;;;1.33;;
54125;SDS011;40360;52.992;6.796;2023-05-02T10:15:57;9.63;;;2.00;;
54125;SDS011;40360;52.992;6.796;2023-05-02T10:18:40;4.38;;;1.50;;
54125;SDS011;40360;52.992;6.796;2023-05-02T10:21:11;3.20;;;1.20;;
54125;SDS011;40360;52.992;6.796;2023-05-02T10:23:40;3.58;;;1.70;;
54125;SDS011;40360;52.992;6.796;2023-05-02T10:26:15;7.88;;;1.42;;
54125;SDS011;40360;52.992;6.796;2023-05-02T10:28:41;4.95;;;1.45;;
54125;SDS011;40360;52.992;6.796;2023-05-02T10:31:10;4.78;;;1.60;;
54125;SDS011;40360;52.992;6.796;2023-05-02T10:33:38;4.80;;;1.60;;
54125;SDS011;40360;52.992;6.796;2023-05-02T10:36:04;7.05;;;1.60;;
54125;SDS011;40360;52.992;6.796;2023-05-02T10:38:34;8.98;;;2.00;;
54125;SDS011;40360;52.992;6.796;2023-05-02T10:41:02;2.47;;;1.52;;
54125;SDS011;40360;52.992;6.796;2023-05-02T10:43:36;6.30;;;1.70;;
54125;SDS011;40360;52.992;6.796;2023-05-02T10:46:03;6.47;;;1.98;;
54125;SDS011;40360;52.992;6.796;2023-05-02T10:48:58;11.38;;;2.25;;
54125;SDS011;40360;52.992;6.796;2023-05-02T10:51:29;5.88;;;1.45;;
54125;SDS011;40360;52.992;6.796;2023-05-02T11:01:55;3.97;;;1.63;;
54125;SDS011;40360;52.992;6.796;2023-05-02T11:04:21;7.07;;;3.05;;
54125;SDS011;40360;52.992;6.796;2023-05-02T11:11:54;6.22;;;1.42;;
54125;SDS011;40360;52.992;6.796;2023-05-02T11:24:56;7.80;;;1.30;;
54125;SDS011;40360;52.992;6.796;2023-05-02T11:35:21;4.30;;;1.40;;
54125;SDS011;40360;52.992;6.796;2023-05-02T11:37:58;5.38;;;1.38;;
54125;SDS011;40360;52.992;6.796;2023-05-02T11:40:28;4.18;;;1.30;;
54125;SDS011;40360;52.992;6.796;2023-05-02T11:42:54;5.32;;;1.60;;
54125;SDS011;40360;52.992;6.796;2023-05-02T11:45:20;7.63;;;1.60;;
54125;SDS011;40360;52.992;6.796;2023-05-02T11:47:47;6.05;;;2.03;;
54125;SDS011;40360;52.992;6.796;2023-05-02T11:50:15;4.65;;;1.08;;
54125;SDS011;40360;52.992;6.796;2023-05-02T11:52:42;2.55;;;1.02;;
54125;SDS011;40360;52.992;6.796;2023-05-02T11:55:12;4.85;;;1.58;;
54125;SDS011;40360;52.992;6.796;2023-05-02T11:57:39;4.82;;;1.75;;
54125;SDS011;40360;52.992;6.796;2023-05-02T12:00:05;3.92;;;1.77;;
54125;SDS011;40360;52.992;6.796;2023-05-02T12:05:04;3.53;;;1.85;;
54125;SDS011;40360;52.992;6.796;2023-05-02T12:07:34;4.72;;;1.50;;
54125;SDS011;40360;52.992;6.796;2023-05-02T12:10:07;5.82;;;1.67;;
54125;SDS011;40360;52.992;6.796;2023-05-02T12:12:33;6.43;;;1.55;;
54125;SDS011;40360;52.992;6.796;2023-05-02T12:15:06;7.05;;;1.70;;
54125;SDS011;40360;52.992;6.796;2023-05-02T12:17:35;8.13;;;1.75;;
54125;SDS011;40360;52.992;6.796;2023-05-02T12:20:02;3.42;;;1.30;;
54125;SDS011;40360;52.992;6.796;2023-05-02T12:22:29;3.67;;;1.60;;
54125;SDS011;40360;52.992;6.796;2023-05-02T12:24:55;4.28;;;1.40;;
54125;SDS011;40360;52.992;6.796;2023-05-02T12:27:21;3.60;;;1.52;;
54125;SDS011;40360;52.992;6.796;2023-05-02T12:29:47;5.85;;;1.48;;
54125;SDS011;40360;52.992;6.796;2023-05-02T12:32:14;2.97;;;1.35;;
54125;SDS011;40360;52.992;6.796;2023-05-02T12:34:50;6.43;;;1.77;;
54125;SDS011;40360;52.992;6.796;2023-05-02T12:37:20;5.55;;;1.35;;
54125;SDS011;40360;52.992;6.796;2023-05-02T12:39:51;2.00;;;1.20;;
54125;SDS011;40360;52.992;6.796;2023-05-02T12:42:18;3.60;;;1.45;;
54125;SDS011;40360;52.992;6.796;2023-05-02T12:44:45;5.22;;;1.73;;
54125;SDS011;40360;52.992;6.796;2023-05-02T12:47:13;6.00;;;1.20;;
54125;SDS011;40360;52.992;6.796;2023-05-02T12:49:53;3.03;;;1.23;;
54125;SDS011;40360;52.992;6.796;2023-05-02T12:55:17;5.05;;;1.38;;
54125;SDS011;40360;52.992;6.796;2023-05-02T12:57:50;3.85;;;1.20;;
54125;SDS011;40360;52.992;6.796;2023-05-02T13:00:23;5.85;;;1.90;;
54125;SDS011;40360;52.992;6.796;2023-05-02T13:02:49;3.83;;;1.30;;
54125;SDS011;40360;52.992;6.796;2023-05-02T13:05:18;3.72;;;0.88;;
54125;SDS011;40360;52.992;6.796;2023-05-02T13:07:44;5.25;;;1.67;;
54125;SDS011;40360;52.992;6.796;2023-05-02T13:10:11;4.38;;;1.25;;
54125;SDS011;40360;52.992;6.796;2023-05-02T13:12:37;3.65;;;1.00;;
54125;SDS011;40360;52.992;6.796;2023-05-02T13:15:04;3.88;;;1.08;;
54125;SDS011;40360;52.992;6.796;2023-05-02T13:17:31;2.17;;;0.90;;
54125;SDS011;40360;52.992;6.796;2023-05-02T13:19:57;4.10;;;1.10;;
54125;SDS011;40360;52.992;6.796;2023-05-02T13:22:23;3.00;;;1.00;;
54125;SDS011;40360;52.992;6.796;2023-05-02T13:24:49;4.20;;;1.50;;
54125;SDS011;40360;52.992;6.796;2023-05-02T13:27:15;2.83;;;1.15;;
54125;SDS011;40360;52.992;6.796;2023-05-02T13:29:42;3.38;;;0.95;;
54125;SDS011;40360;52.992;6.796;2023-05-02T13:32:08;1.73;;;0.80;;
54125;SDS011;40360;52.992;6.796;2023-05-02T13:34:34;2.78;;;0.85;;
54125;SDS011;40360;52.992;6.796;2023-05-02T13:36:59;1.70;;;0.75;;
54125;SDS011;40360;52.992;6.796;2023-05-02T13:39:25;3.33;;;0.90;;
54125;SDS011;40360;52.992;6.796;2023-05-02T13:41:51;2.67;;;0.80;;
54125;SDS011;40360;52.992;6.796;2023-05-02T13:44:16;5.50;;;0.90;;
54125;SDS011;40360;52.992;6.796;2023-05-02T13:46:42;3.17;;;0.88;;
54125;SDS011;40360;52.992;6.796;2023-05-02T13:49:07;4.90;;;1.25;;
54125;SDS011;40360;52.992;6.796;2023-05-02T13:51:33;3.22;;;1.10;;
54125;SDS011;40360;52.992;6.796;2023-05-02T13:53:59;2.00;;;1.05;;
54125;SDS011;40360;52.992;6.796;2023-05-02T13:56:25;2.58;;;1.10;;
54125;SDS011;40360;52.992;6.796;2023-05-02T13:58:51;3.53;;;1.27;;
54125;SDS011;40360;52.992;6.796;2023-05-02T14:01:16;2.50;;;1.08;;
54125;SDS011;40360;52.992;6.796;2023-05-02T14:03:45;6.18;;;1.50;;
54125;SDS011;40360;52.992;6.796;2023-05-02T14:06:11;4.57;;;1.10;;
54125;SDS011;40360;52.992;6.796;2023-05-02T14:08:36;6.75;;;1.25;;
54125;SDS011;40360;52.992;6.796;2023-05-02T14:11:02;2.38;;;1.33;;
54125;SDS011;40360;52.992;6.796;2023-05-02T14:13:28;3.45;;;1.38;;
54125;SDS011;40360;52.992;6.796;2023-05-02T14:15:53;5.05;;;1.67;;
54125;SDS011;40360;52.992;6.796;2023-05-02T14:18:19;4.25;;;1.25;;
54125;SDS011;40360;52.992;6.796;2023-05-02T14:20:45;2.17;;;1.10;;
54125;SDS011;40360;52.992;6.796;2023-05-02T14:23:11;3.22;;;1.45;;
54125;SDS011;40360;52.992;6.796;2023-05-02T14:25:36;2.08;;;1.00;;
54125;SDS011;40360;52.992;6.796;2023-05-02T14:28:02;5.38;;;1.05;;
54125;SDS011;40360;52.992;6.796;2023-05-02T14:30:28;4.70;;;1.50;;
54125;SDS011;40360;52.992;6.796;2023-05-02T14:32:55;5.65;;;1.20;;
54125;SDS011;40360;52.992;6.796;2023-05-02T14:35:21;3.88;;;1.00;;
54125;SDS011;40360;52.992;6.796;2023-05-02T14:37:46;3.47;;;1.40;;
54125;SDS011;40360;52.992;6.796;2023-05-02T14:40:12;7.13;;;1.13;;
54125;SDS011;40360;52.992;6.796;2023-05-02T14:42:41;4.80;;;1.02;;
54125;SDS011;40360;52.992;6.796;2023-05-02T14:45:08;2.67;;;1.15;;
54125;SDS011;40360;52.992;6.796;2023-05-02T14:47:34;2.80;;;1.00;;
54125;SDS011;40360;52.992;6.796;2023-05-02T14:50:01;5.25;;;1.83;;
54125;SDS011;40360;52.992;6.796;2023-05-02T14:52:27;7.15;;;1.35;;
54125;SDS011;40360;52.992;6.796;2023-05-02T14:54:53;3.22;;;1.45;;
54125;SDS011;40360;52.992;6.796;2023-05-02T14:57:19;7.63;;;2.25;;
54125;SDS011;40360;52.992;6.796;2023-05-02T14:59:44;5.03;;;1.02;;
54125;SDS011;40360;52.992;6.796;2023-05-02T15:02:10;6.13;;;1.20;;
54125;SDS011;40360;52.992;6.796;2023-05-02T15:04:35;5.38;;;1.00;;
54125;SDS011;40360;52.992;6.796;2023-05-02T15:07:02;1.38;;;0.80;;
54125;SDS011;40360;52.992;6.796;2023-05-02T15:09:28;6.50;;;1.60;;
54125;SDS011;40360;52.992;6.796;2023-05-02T15:11:54;5.65;;;1.10;;
54125;SDS011;40360;52.992;6.796;2023-05-02T15:14:20;4.97;;;1.13;;
54125;SDS011;40360;52.992;6.796;2023-05-02T15:16:46;4.45;;;1.00;;
54125;SDS011;40360;52.992;6.796;2023-05-02T15:19:12;6.10;;;0.93;;
54125;SDS011;40360;52.992;6.796;2023-05-02T15:21:38;3.80;;;1.30;;
54125;SDS011;40360;52.992;6.796;2023-05-02T15:24:04;3.60;;;0.98;;
54125;SDS011;40360;52.992;6.796;2023-05-02T15:26:30;3.65;;;0.90;;
54125;SDS011;40360;52.992;6.796;2023-05-02T15:28:56;2.65;;;1.20;;
54125;SDS011;40360;52.992;6.796;2023-05-02T15:31:22;3.15;;;1.00;;
54125;SDS011;40360;52.992;6.796;2023-05-02T15:33:48;3.13;;;0.98;;
54125;SDS011;40360;52.992;6.796;2023-05-02T15:36:13;4.50;;;1.00;;
54125;SDS011;40360;52.992;6.796;2023-05-02T15:38:40;8.27;;;1.40;;
54125;SDS011;40360;52.992;6.796;2023-05-02T15:41:07;4.03;;;1.30;;
54125;SDS011;40360;52.992;6.796;2023-05-02T15:43:34;6.55;;;1.35;;
54125;SDS011;40360;52.992;6.796;2023-05-02T15:46:00;7.85;;;1.58;;
54125;SDS011;40360;52.992;6.796;2023-05-02T15:48:26;5.43;;;1.20;;
54125;SDS011;40360;52.992;6.796;2023-05-02T15:50:59;3.25;;;1.67;;
54125;SDS011;40360;52.992;6.796;2023-05-02T15:53:24;7.93;;;1.40;;
54125;SDS011;40360;52.992;6.796;2023-05-02T15:55:50;4.35;;;1.10;;
54125;SDS011;40360;52.992;6.796;2023-05-02T15:58:17;5.57;;;0.90;;
54125;SDS011;40360;52.992;6.796;2023-05-02T16:00:43;4.68;;;1.15;;
54125;SDS011;40360;52.992;6.796;2023-05-02T16:03:10;5.63;;;1.60;;